Time;durP1;ratioP1;P1;durP2;ratioP2;P2;SDS_P1;SDS_P2;PMS_P1;PMS_P2;Temp;Humidity;BMP_temperature;BMP_pressure;BME280_temperature;BME280_humidity;BME280_pressure;Samples;Min_cycle;Max_cycle;Signal;HPM_P1;HPM_P2
2021/06/03 00:00:12;;;;;;;10.00;3.72;;;;;;;;;;5062450;28;20021;-69
2021/06/03 00:02:37;;;;;;;4.50;2.80;;;;;;;;;;5067238;28;20046;-70
2021/06/03 00:05:04;;;;;;;4.68;2.45;;;;;;;;;;5067930;28;20467;-69
2021/06/03 00:07:29;;;;;;;5.22;3.20;;;;;;;;;;5067874;28;20032;-69
2021/06/03 00:09:54;;;;;;;5.23;3.20;;;;;;;;;;5069680;28;20013;-69
2021/06/03 00:12:19;;;;;;;5.13;3.47;;;;;;;;;;5067774;28;20262;-68
2021/06/03 00:14:45;;;;;;;9.57;3.40;;;;;;;;;;5066095;28;20796;-68
2021/06/03 00:17:10;;;;;;;4.53;3.05;;;;;;;;;;5065197;28;20255;-69
2021/06/03 00:19:35;;;;;;;7.23;3.60;;;;;;;;;;5065761;28;20135;-71
2021/06/03 00:22:00;;;;;;;6.43;3.55;;;;;;;;;;5065160;28;20266;-69
2021/06/03 00:24:25;;;;;;;7.13;3.53;;;;;;;;;;5067170;28;20032;-72
2021/06/03 00:26:51;;;;;;;6.30;3.33;;;;;;;;;;5067847;28;20270;-71
2021/06/03 00:29:16;;;;;;;8.77;3.53;;;;;;;;;;5066159;28;20028;-70
2021/06/03 00:31:42;;;;;;;6.32;4.07;;;;;;;;;;5066036;28;20032;-69
2021/06/03 00:34:07;;;;;;;13.32;3.03;;;;;;;;;;5066406;28;20062;-69
2021/06/03 00:36:33;;;;;;;10.00;4.18;;;;;;;;;;5064908;28;20497;-71
2021/06/03 00:38:58;;;;;;;5.07;3.40;;;;;;;;;;5066969;28;20091;-73
2021/06/03 00:41:23;;;;;;;4.85;3.17;;;;;;;;;;5066225;28;20697;-71
2021/06/03 00:43:49;;;;;;;8.25;3.58;;;;;;;;;;5066218;28;20664;-70
2021/06/03 00:46:14;;;;;;;5.60;3.35;;;;;;;;;;5065630;28;20020;-71
2021/06/03 00:48:39;;;;;;;7.22;3.17;;;;;;;;;;5065512;28;20371;-70
2021/06/03 00:51:06;;;;;;;7.27;3.00;;;;;;;;;;5066398;28;20029;-69
2021/06/03 00:53:32;;;;;;;4.45;3.20;;;;;;;;;;5066365;28;20293;-70
2021/06/03 00:55:58;;;;;;;8.35;3.60;;;;;;;;;;5064746;28;20028;-69
2021/06/03 00:58:24;;;;;;;6.93;3.08;;;;;;;;;;5065553;28;20020;-71
2021/06/03 01:00:50;;;;;;;8.13;3.22;;;;;;;;;;5066178;28;20509;-69
2021/06/03 01:03:15;;;;;;;6.63;3.35;;;;;;;;;;5068529;28;20133;-69
2021/06/03 01:05:53;;;;;;;8.10;3.58;;;;;;;;;;5056120;28;20021;-68
2021/06/03 01:08:20;;;;;;;8.10;3.30;;;;;;;;;;5070216;28;20020;-69
2021/06/03 01:10:50;;;;;;;7.90;3.13;;;;;;;;;;5070563;28;20248;-69
2021/06/03 01:13:24;;;;;;;8.48;3.65;;;;;;;;;;5064673;28;21221;-70
2021/06/03 01:15:50;;;;;;;5.32;3.00;;;;;;;;;;5065214;28;20056;-69
2021/06/03 01:18:17;;;;;;;5.38;3.28;;;;;;;;;;5063939;28;20455;-69
2021/06/03 01:20:43;;;;;;;10.70;2.92;;;;;;;;;;5065061;28;20064;-69
2021/06/03 01:23:13;;;;;;;6.78;3.17;;;;;;;;;;5065365;28;20074;-67
2021/06/03 01:25:39;;;;;;;5.45;2.92;;;;;;;;;;5065067;28;20024;-68
2021/06/03 01:28:05;;;;;;;8.45;3.25;;;;;;;;;;5065946;28;20082;-68
2021/06/03 01:30:32;;;;;;;8.73;3.25;;;;;;;;;;5063094;28;20107;-67
2021/06/03 01:32:59;;;;;;;4.75;3.10;;;;;;;;;;5065441;28;20016;-67
2021/06/03 01:35:31;;;;;;;8.68;2.80;;;;;;;;;;5065382;28;20024;-67
2021/06/03 01:37:57;;;;;;;9.32;3.13;;;;;;;;;;5065446;28;20039;-67
2021/06/03 01:40:23;;;;;;;9.98;3.42;;;;;;;;;;5065527;28;20506;-71
2021/06/03 01:42:49;;;;;;;5.22;2.92;;;;;;;;;;5064009;28;20524;-71
2021/06/03 01:45:15;;;;;;;9.07;3.65;;;;;;;;;;5064381;28;20013;-69
2021/06/03 01:47:41;;;;;;;6.80;3.38;;;;;;;;;;5064026;28;20146;-67
2021/06/03 01:50:06;;;;;;;6.55;3.40;;;;;;;;;;5064556;28;20024;-67
2021/06/03 01:52:32;;;;;;;6.35;3.05;;;;;;;;;;5046856;28;20077;-68
2021/06/03 01:54:57;;;;;;;7.68;3.15;;;;;;;;;;5064614;28;20056;-69
2021/06/03 01:57:22;;;;;;;12.45;3.28;;;;;;;;;;5064209;28;20029;-67
2021/06/03 01:59:48;;;;;;;4.68;3.22;;;;;;;;;;5064532;28;20032;-68
2021/06/03 02:02:13;;;;;;;10.75;3.28;;;;;;;;;;5065261;28;20020;-67
2021/06/03 02:04:38;;;;;;;4.10;2.90;;;;;;;;;;5064894;28;20052;-69
2021/06/03 02:07:04;;;;;;;12.50;3.10;;;;;;;;;;5064603;28;20793;-69
2021/06/03 02:09:29;;;;;;;5.22;3.10;;;;;;;;;;5065710;28;20327;-68
2021/06/03 02:11:55;;;;;;;5.60;2.90;;;;;;;;;;5065044;28;20024;-69
2021/06/03 02:14:23;;;;;;;5.40;3.17;;;;;;;;;;5063984;28;20358;-70
2021/06/03 02:16:50;;;;;;;4.45;2.90;;;;;;;;;;5064464;28;20032;-69
2021/06/03 02:19:17;;;;;;;8.93;3.20;;;;;;;;;;5046935;28;20028;-69
2021/06/03 02:21:45;;;;;;;4.57;3.45;;;;;;;;;;5064758;28;20020;-69
2021/06/03 02:24:11;;;;;;;4.57;3.05;;;;;;;;;;5064666;28;20058;-69
2021/06/03 02:26:39;;;;;;;6.25;3.00;;;;;;;;;;5064248;28;21295;-71
2021/06/03 02:29:04;;;;;;;6.57;2.97;;;;;;;;;;5063897;28;20024;-70
2021/06/03 02:31:33;;;;;;;4.47;3.30;;;;;;;;;;5064316;28;20027;-69
2021/06/03 02:33:58;;;;;;;10.13;3.38;;;;;;;;;;5064715;28;20071;-68
2021/06/03 02:36:26;;;;;;;5.53;3.17;;;;;;;;;;5062550;28;20060;-68
2021/06/03 02:38:51;;;;;;;6.22;2.78;;;;;;;;;;5064123;28;20372;-69
2021/06/03 02:41:16;;;;;;;4.23;2.87;;;;;;;;;;5064648;28;20097;-68
2021/06/03 02:43:43;;;;;;;4.68;2.92;;;;;;;;;;5064299;28;20589;-69
2021/06/03 02:46:08;;;;;;;5.13;2.92;;;;;;;;;;5064646;28;20033;-68
2021/06/03 02:48:33;;;;;;;8.30;3.00;;;;;;;;;;5063966;28;20173;-71
2021/06/03 02:50:59;;;;;;;4.00;2.73;;;;;;;;;;5064040;28;20603;-68
2021/06/03 02:53:24;;;;;;;4.35;2.90;;;;;;;;;;5064535;28;20274;-70
2021/06/03 02:55:49;;;;;;;4.30;2.53;;;;;;;;;;5063210;28;20025;-67
2021/06/03 02:58:15;;;;;;;5.10;2.47;;;;;;;;;;5064211;28;21332;-71
2021/06/03 03:00:40;;;;;;;3.72;2.60;;;;;;;;;;5067986;28;20025;-68
2021/06/03 03:03:08;;;;;;;3.22;2.30;;;;;;;;;;5068101;28;20031;-68
2021/06/03 03:05:34;;;;;;;7.55;2.63;;;;;;;;;;5067820;28;20046;-69
2021/06/03 03:07:59;;;;;;;3.75;2.63;;;;;;;;;;5067617;28;20386;-69
2021/06/03 03:10:28;;;;;;;7.70;2.40;;;;;;;;;;5067828;28;20012;-68
2021/06/03 03:12:54;;;;;;;2.60;2.08;;;;;;;;;;5067042;28;20216;-68
2021/06/03 03:15:19;;;;;;;6.72;2.08;;;;;;;;;;5067493;28;20025;-68
2021/06/03 03:17:45;;;;;;;5.55;2.65;;;;;;;;;;5049515;28;20020;-68
2021/06/03 03:20:11;;;;;;;4.93;2.53;;;;;;;;;;5067786;28;21170;-68
2021/06/03 03:22:40;;;;;;;5.60;2.30;;;;;;;;;;5066726;28;20059;-68
2021/06/03 03:25:07;;;;;;;6.47;4.00;;;;;;;;;;5066555;28;20024;-67
2021/06/03 03:27:32;;;;;;;4.75;3.00;;;;;;;;;;5068336;28;20042;-68
2021/06/03 03:29:57;;;;;;;4.70;3.00;;;;;;;;;;5067210;28;20115;-70
2021/06/03 03:32:22;;;;;;;6.10;2.67;;;;;;;;;;5067430;28;20113;-68
2021/06/03 03:34:47;;;;;;;4.33;2.87;;;;;;;;;;5067521;28;20606;-68
2021/06/03 03:37:12;;;;;;;4.40;2.92;;;;;;;;;;5067759;28;20271;-68
2021/06/03 03:39:38;;;;;;;6.77;3.10;;;;;;;;;;5067961;28;20028;-68
2021/06/03 03:42:03;;;;;;;4.50;3.28;;;;;;;;;;5067876;28;20363;-68
2021/06/03 03:44:28;;;;;;;8.30;2.90;;;;;;;;;;5066182;28;20158;-68
2021/06/03 03:46:53;;;;;;;10.27;3.30;;;;;;;;;;5067207;28;21153;-68
2021/06/03 03:49:19;;;;;;;8.40;3.33;;;;;;;;;;5067460;28;20258;-68
2021/06/03 03:51:45;;;;;;;7.13;3.25;;;;;;;;;;5067234;28;20270;-68
2021/06/03 03:54:10;;;;;;;5.88;3.30;;;;;;;;;;5066725;28;20052;-68
2021/06/03 03:56:35;;;;;;;4.87;2.90;;;;;;;;;;5066805;28;20024;-68
2021/06/03 03:59:00;;;;;;;5.63;2.67;;;;;;;;;;5066967;28;20779;-68
2021/06/03 04:01:28;;;;;;;6.45;3.33;;;;;;;;;;5070358;28;20262;-68
2021/06/03 04:03:53;;;;;;;4.20;2.85;;;;;;;;;;5067162;28;20385;-68
2021/06/03 04:06:19;;;;;;;4.70;3.30;;;;;;;;;;5066392;28;20021;-68
2021/06/03 04:08:44;;;;;;;7.43;3.22;;;;;;;;;;5067281;28;20027;-68
2021/06/03 04:11:09;;;;;;;4.87;3.07;;;;;;;;;;5065810;28;20025;-68
2021/06/03 04:13:35;;;;;;;4.18;2.90;;;;;;;;;;5047431;28;20800;-68
2021/06/03 04:16:01;;;;;;;4.95;3.20;;;;;;;;;;5066459;28;20358;-68
2021/06/03 04:18:26;;;;;;;6.38;2.83;;;;;;;;;;5066709;28;20029;-68
2021/06/03 04:20:51;;;;;;;4.78;2.55;;;;;;;;;;5066236;28;20458;-68
2021/06/03 04:23:16;;;;;;;4.57;3.10;;;;;;;;;;5063683;28;20541;-68
2021/06/03 04:25:41;;;;;;;4.72;2.70;;;;;;;;;;5066733;28;20144;-68
2021/06/03 04:28:07;;;;;;;7.47;4.05;;;;;;;;;;5067510;28;20044;-68
2021/06/03 04:30:33;;;;;;;4.47;2.88;;;;;;;;;;5066617;28;20111;-68
2021/06/03 04:32:58;;;;;;;7.75;2.80;;;;;;;;;;5066301;28;20024;-68
2021/06/03 04:35:24;;;;;;;4.67;2.90;;;;;;;;;;5066325;28;20141;-68
2021/06/03 04:37:50;;;;;;;3.95;2.50;;;;;;;;;;5065495;28;20586;-68
2021/06/03 04:40:16;;;;;;;6.15;2.72;;;;;;;;;;5067537;28;20024;-68
2021/06/03 04:42:42;;;;;;;5.18;2.95;;;;;;;;;;5064639;28;20120;-68
2021/06/03 04:45:08;;;;;;;11.45;3.17;;;;;;;;;;5064928;28;20253;-68
2021/06/03 04:47:33;;;;;;;5.60;2.70;;;;;;;;;;5065540;28;20101;-68
2021/06/03 04:49:59;;;;;;;5.53;2.92;;;;;;;;;;5065778;28;20408;-68
2021/06/03 04:52:25;;;;;;;3.38;2.30;;;;;;;;;;5065293;28;20028;-68
2021/06/03 04:54:51;;;;;;;6.30;2.95;;;;;;;;;;5064602;28;20032;-68
2021/06/03 04:57:16;;;;;;;8.95;2.70;;;;;;;;;;5065410;28;21227;-68
2021/06/03 04:59:41;;;;;;;5.30;2.87;;;;;;;;;;5065132;28;20147;-68
2021/06/03 05:02:07;;;;;;;8.52;2.60;;;;;;;;;;5065818;28;20282;-68
2021/06/03 05:04:32;;;;;;;6.17;2.53;;;;;;;;;;5065715;28;20502;-68
2021/06/03 05:06:57;;;;;;;5.10;2.60;;;;;;;;;;5062478;28;20263;-68
2021/06/03 05:09:22;;;;;;;10.07;2.83;;;;;;;;;;5065752;28;20216;-68
2021/06/03 05:11:47;;;;;;;5.20;2.50;;;;;;;;;;5047371;28;20258;-68
2021/06/03 05:14:14;;;;;;;5.37;2.43;;;;;;;;;;5065298;28;20051;-68
2021/06/03 05:16:39;;;;;;;4.80;2.45;;;;;;;;;;5064701;28;20262;-68
2021/06/03 05:19:05;;;;;;;4.57;2.50;;;;;;;;;;5065193;28;20418;-68
2021/06/03 05:21:30;;;;;;;7.13;2.13;;;;;;;;;;5064680;28;20729;-68
2021/06/03 05:23:55;;;;;;;7.80;2.27;;;;;;;;;;5064489;28;20320;-68
2021/06/03 05:26:20;;;;;;;4.23;2.40;;;;;;;;;;5065236;28;20609;-68
2021/06/03 05:28:46;;;;;;;3.17;2.22;;;;;;;;;;5047317;28;20012;-68
2021/06/03 05:31:11;;;;;;;7.07;2.63;;;;;;;;;;5065086;28;20111;-68
2021/06/03 05:33:36;;;;;;;3.47;2.22;;;;;;;;;;5064564;28;20259;-68
2021/06/03 05:36:02;;;;;;;4.67;2.00;;;;;;;;;;5065046;28;20038;-68
2021/06/03 05:38:27;;;;;;;9.30;2.20;;;;;;;;;;5064398;28;20309;-68
2021/06/03 05:40:53;;;;;;;4.72;2.47;;;;;;;;;;5065816;28;20024;-68
2021/06/03 05:43:18;;;;;;;2.95;2.00;;;;;;;;;;5063434;28;20020;-68
2021/06/03 05:45:43;;;;;;;2.88;2.00;;;;;;;;;;5063924;28;20445;-68
2021/06/03 05:48:09;;;;;;;3.40;1.90;;;;;;;;;;5064634;28;20557;-68
2021/06/03 05:50:35;;;;;;;3.63;1.92;;;;;;;;;;5064339;28;20017;-68
2021/06/03 05:53:00;;;;;;;4.47;2.22;;;;;;;;;;5062423;28;20012;-68
2021/06/03 05:55:25;;;;;;;4.03;2.13;;;;;;;;;;5064788;28;20489;-68
2021/06/03 05:57:50;;;;;;;4.70;2.07;;;;;;;;;;5064655;28;20420;-68
2021/06/03 06:00:25;;;;;;;5.35;2.10;;;;;;;;;;5063259;28;20267;-68
2021/06/03 06:02:54;;;;;;;6.45;1.95;;;;;;;;;;5063645;28;20024;-68
2021/06/03 06:08:05;;;;;;;8.73;2.20;;;;;;;;;;5060014;28;20075;-68
2021/06/03 06:10:30;;;;;;;3.65;1.90;;;;;;;;;;5066345;28;20517;-68
2021/06/03 06:12:55;;;;;;;6.00;1.92;;;;;;;;;;5062882;28;20025;-68
2021/06/03 06:15:21;;;;;;;2.55;1.88;;;;;;;;;;5062726;28;20027;-68
2021/06/03 06:17:46;;;;;;;2.42;1.75;;;;;;;;;;5064654;28;20094;-68
2021/06/03 06:20:12;;;;;;;6.05;2.15;;;;;;;;;;5063159;28;20037;-68
2021/06/03 06:22:37;;;;;;;3.33;2.30;;;;;;;;;;5064266;28;20107;-68
2021/06/03 06:25:04;;;;;;;5.70;2.13;;;;;;;;;;5064032;28;20501;-68
2021/06/03 06:27:29;;;;;;;3.33;1.90;;;;;;;;;;5065156;28;20056;-68
2021/06/03 06:29:54;;;;;;;5.07;1.98;;;;;;;;;;5063850;28;20051;-68
2021/06/03 06:32:20;;;;;;;3.40;2.05;;;;;;;;;;5065272;28;20056;-68
2021/06/03 06:34:45;;;;;;;5.90;2.40;;;;;;;;;;5065708;28;20067;-68
2021/06/03 06:37:10;;;;;;;7.87;2.20;;;;;;;;;;5067928;28;20486;-68
2021/06/03 06:39:36;;;;;;;3.27;2.13;;;;;;;;;;5068615;28;20320;-68
2021/06/03 06:42:02;;;;;;;4.57;1.85;;;;;;;;;;5067962;28;20354;-68
2021/06/03 06:44:27;;;;;;;3.38;1.85;;;;;;;;;;5069518;28;20108;-68
2021/06/03 06:46:52;;;;;;;4.35;2.10;;;;;;;;;;5050720;28;21188;-68
2021/06/03 06:49:17;;;;;;;2.22;2.03;;;;;;;;;;5068284;28;20021;-68
2021/06/03 06:51:43;;;;;;;6.80;2.17;;;;;;;;;;5068886;28;20392;-68
2021/06/03 06:54:08;;;;;;;3.57;1.90;;;;;;;;;;5072082;28;20024;-68
2021/06/03 06:56:33;;;;;;;12.55;1.40;;;;;;;;;;5072214;28;20296;-68
2021/06/03 06:58:58;;;;;;;6.15;2.08;;;;;;;;;;5069766;28;20060;-68
2021/06/03 07:01:23;;;;;;;3.08;1.98;;;;;;;;;;5066097;28;20036;-68
2021/06/03 07:03:49;;;;;;;6.07;2.20;;;;;;;;;;5059261;28;20032;-68
2021/06/03 07:06:14;;;;;;;7.70;1.92;;;;;;;;;;5072529;28;20274;-68
2021/06/03 07:08:39;;;;;;;4.07;2.13;;;;;;;;;;5051477;28;20024;-69
2021/06/03 07:11:04;;;;;;;3.22;2.03;;;;;;;;;;5061686;28;20727;-68
2021/06/03 07:13:30;;;;;;;3.00;2.10;;;;;;;;;;5053422;28;20029;-68
2021/06/03 07:15:55;;;;;;;3.22;1.80;;;;;;;;;;5067547;28;20285;-68
2021/06/03 07:18:21;;;;;;;4.47;2.67;;;;;;;;;;5070895;28;20051;-68
2021/06/03 07:20:47;;;;;;;3.47;2.40;;;;;;;;;;5067019;28;20139;-68
2021/06/03 07:23:12;;;;;;;5.82;2.30;;;;;;;;;;5059907;28;20012;-68
2021/06/03 07:25:39;;;;;;;4.95;2.05;;;;;;;;;;5063431;28;20448;-68
2021/06/03 07:28:05;;;;;;;5.72;2.15;;;;;;;;;;5057108;28;20043;-68
2021/06/03 07:30:30;;;;;;;7.18;2.50;;;;;;;;;;5066844;28;20035;-68
2021/06/03 07:32:56;;;;;;;3.60;2.20;;;;;;;;;;5072155;28;20020;-68
2021/06/03 07:35:22;;;;;;;4.50;2.63;;;;;;;;;;5066835;28;20021;-68
2021/06/03 07:37:48;;;;;;;8.00;2.95;;;;;;;;;;5052645;28;20135;-68
2021/06/03 07:40:15;;;;;;;3.30;2.50;;;;;;;;;;5064150;28;20040;-68
2021/06/03 07:42:40;;;;;;;5.68;2.30;;;;;;;;;;5072457;28;20058;-68
2021/06/03 07:45:07;;;;;;;4.05;2.47;;;;;;;;;;5054825;28;20025;-68
2021/06/03 07:47:32;;;;;;;5.53;2.40;;;;;;;;;;5037524;28;20119;-68
2021/06/03 07:49:58;;;;;;;5.63;2.75;;;;;;;;;;5072508;28;20111;-68
2021/06/03 07:52:23;;;;;;;7.63;2.83;;;;;;;;;;5072715;28;20024;-68
2021/06/03 07:54:48;;;;;;;6.07;2.97;;;;;;;;;;5072737;28;20012;-68
2021/06/03 07:57:13;;;;;;;3.47;2.37;;;;;;;;;;5072537;28;20251;-68
2021/06/03 07:59:38;;;;;;;4.27;2.53;;;;;;;;;;5072182;28;20704;-68
2021/06/03 08:02:04;;;;;;;4.32;2.67;;;;;;;;;;5071829;28;20020;-68
2021/06/03 08:04:29;;;;;;;5.40;3.00;;;;;;;;;;5072167;28;20032;-68
2021/06/03 08:06:54;;;;;;;3.90;2.40;;;;;;;;;;5064215;28;20271;-68
2021/06/03 08:09:19;;;;;;;4.13;2.63;;;;;;;;;;5055406;28;20052;-69
2021/06/03 08:11:45;;;;;;;2.50;2.20;;;;;;;;;;5071755;28;20066;-68
2021/06/03 08:14:11;;;;;;;4.68;2.70;;;;;;;;;;5072183;28;20312;-68
2021/06/03 08:16:36;;;;;;;4.88;2.33;;;;;;;;;;5071472;28;20031;-68
2021/06/03 08:19:01;;;;;;;7.30;2.15;;;;;;;;;;5053606;28;20035;-68
2021/06/03 08:21:26;;;;;;;4.37;2.57;;;;;;;;;;5070296;28;20024;-68
2021/06/03 08:23:51;;;;;;;7.63;2.20;;;;;;;;;;5071639;28;20546;-68
2021/06/03 08:26:17;;;;;;;5.22;2.17;;;;;;;;;;5071830;28;20258;-68
2021/06/03 08:28:43;;;;;;;4.10;2.20;;;;;;;;;;5071712;28;20020;-68
2021/06/03 08:31:08;;;;;;;4.57;2.60;;;;;;;;;;5070851;28;20028;-68
2021/06/03 08:33:33;;;;;;;4.90;2.60;;;;;;;;;;5071531;28;20034;-68
2021/06/03 08:35:58;;;;;;;3.53;2.10;;;;;;;;;;5071844;28;20020;-68
2021/06/03 08:38:24;;;;;;;3.83;2.60;;;;;;;;;;5062130;28;20482;-68
2021/06/03 08:40:53;;;;;;;4.00;2.65;;;;;;;;;;5051669;28;20259;-68
2021/06/03 08:43:20;;;;;;;3.65;1.92;;;;;;;;;;5067139;28;20028;-68
2021/06/03 08:45:46;;;;;;;2.30;1.55;;;;;;;;;;5071568;28;20491;-68
2021/06/03 08:48:11;;;;;;;11.00;2.75;;;;;;;;;;5071297;28;20027;-68
2021/06/03 08:50:38;;;;;;;7.57;2.70;;;;;;;;;;5071815;28;20016;-68
2021/06/03 08:53:04;;;;;;;3.92;2.58;;;;;;;;;;5071120;28;20542;-68
2021/06/03 08:58:14;;;;;;;5.50;2.63;;;;;;;;;;5070469;28;20098;-69
2021/06/03 09:00:40;;;;;;;6.03;3.20;;;;;;;;;;5053146;28;20029;-69
2021/06/03 09:03:06;;;;;;;4.78;2.58;;;;;;;;;;5070932;28;20029;-68
2021/06/03 09:05:31;;;;;;;9.00;3.22;;;;;;;;;;5071273;28;20016;-68
2021/06/03 09:07:57;;;;;;;6.43;3.47;;;;;;;;;;5070816;28;20073;-68
2021/06/03 09:10:31;;;;;;;6.53;2.65;;;;;;;;;;5070409;28;20036;-68
2021/06/03 09:13:04;;;;;;;3.55;2.60;;;;;;;;;;5069999;28;20359;-69
2021/06/03 09:15:30;;;;;;;4.22;2.80;;;;;;;;;;5071114;28;20028;-69
2021/06/03 09:17:55;;;;;;;15.55;4.45;;;;;;;;;;5053226;28;20116;-69
2021/06/03 09:20:25;;;;;;;6.13;3.47;;;;;;;;;;5063504;28;20479;-69
2021/06/03 09:22:53;;;;;;;9.85;3.13;;;;;;;;;;5069832;28;20267;-70
2021/06/03 09:25:32;;;;;;;5.40;3.08;;;;;;;;;;5070642;28;20024;-70
2021/06/03 09:28:17;;;;;;;6.30;3.73;;;;;;;;;;5061193;28;20021;-70
2021/06/03 09:31:00;;;;;;;9.20;3.92;;;;;;;;;;5066736;28;20024;-69
2021/06/03 09:33:43;;;;;;;7.07;3.35;;;;;;;;;;5070019;28;20016;-70
2021/06/03 09:36:10;;;;;;;6.50;4.10;;;;;;;;;;5069096;28;20031;-70
2021/06/03 09:38:36;;;;;;;12.68;4.95;;;;;;;;;;5070134;28;20367;-70
2021/06/03 09:41:02;;;;;;;7.38;4.45;;;;;;;;;;5052628;28;20024;-70
2021/06/03 09:43:28;;;;;;;7.13;4.40;;;;;;;;;;5052714;28;20031;-71
2021/06/03 09:46:00;;;;;;;7.72;4.40;;;;;;;;;;5057825;28;20025;-70
2021/06/03 09:48:36;;;;;;;7.15;4.93;;;;;;;;;;5064352;28;20025;-71
2021/06/03 09:51:19;;;;;;;12.75;4.90;;;;;;;;;;5062836;28;20021;-70
2021/06/03 09:53:58;;;;;;;8.13;4.47;;;;;;;;;;5070789;28;20096;-71
2021/06/03 09:56:26;;;;;;;8.32;4.57;;;;;;;;;;5070030;28;20028;-68
2021/06/03 09:58:52;;;;;;;10.90;5.05;;;;;;;;;;5070489;28;20070;-69
2021/06/03 10:01:37;;;;;;;10.63;5.90;;;;;;;;;;5069583;28;20028;-69
2021/06/03 10:04:03;;;;;;;10.75;5.78;;;;;;;;;;5070649;28;20052;-69
2021/06/03 10:06:28;;;;;;;11.07;5.20;;;;;;;;;;5069813;28;20060;-69
2021/06/03 10:08:53;;;;;;;9.27;5.00;;;;;;;;;;5069608;28;20028;-70
2021/06/03 10:11:37;;;;;;;11.02;4.68;;;;;;;;;;5066686;28;20338;-68
2021/06/03 10:14:12;;;;;;;9.15;4.60;;;;;;;;;;5070480;28;20020;-69
2021/06/03 10:16:37;;;;;;;10.55;5.25;;;;;;;;;;5069546;28;20418;-69
2021/06/03 10:19:17;;;;;;;8.90;5.05;;;;;;;;;;5070055;28;20020;-69
2021/06/03 10:21:42;;;;;;;8.27;5.90;;;;;;;;;;5069660;28;20032;-70
2021/06/03 10:24:07;;;;;;;10.10;5.30;;;;;;;;;;5070021;28;20028;-70
2021/06/03 10:26:51;;;;;;;12.73;5.68;;;;;;;;;;5067973;28;20020;-69
2021/06/03 10:29:16;;;;;;;12.32;5.45;;;;;;;;;;5058288;28;20099;-70
2021/06/03 10:31:41;;;;;;;7.20;5.50;;;;;;;;;;5070019;28;20506;-70
2021/06/03 10:34:07;;;;;;;20.50;6.47;;;;;;;;;;5070050;28;20267;-70
2021/06/03 10:36:32;;;;;;;9.45;5.85;;;;;;;;;;5069749;28;20304;-69
2021/06/03 10:38:57;;;;;;;10.20;6.68;;;;;;;;;;5067544;28;20032;-69
2021/06/03 10:41:22;;;;;;;10.65;6.00;;;;;;;;;;5070358;28;20027;-68
2021/06/03 10:43:48;;;;;;;10.13;6.20;;;;;;;;;;5069627;28;20025;-69
2021/06/03 10:46:13;;;;;;;15.98;5.88;;;;;;;;;;5070152;28;20024;-70
2021/06/03 10:48:40;;;;;;;11.27;6.20;;;;;;;;;;5064459;28;20048;-68
2021/06/03 10:51:06;;;;;;;9.10;5.65;;;;;;;;;;5069903;28;20370;-68
2021/06/03 10:53:31;;;;;;;15.52;6.40;;;;;;;;;;5062420;28;20482;-69
2021/06/03 10:56:06;;;;;;;9.53;6.27;;;;;;;;;;5069726;28;20033;-69
2021/06/03 10:58:33;;;;;;;10.05;5.70;;;;;;;;;;5069146;28;20267;-68
2021/06/03 11:01:01;;;;;;;12.90;5.97;;;;;;;;;;5065320;28;20086;-68
2021/06/03 11:03:47;;;;;;;13.68;6.05;;;;;;;;;;5062401;28;20055;-68
2021/06/03 11:06:14;;;;;;;10.93;5.85;;;;;;;;;;5061910;28;20086;-70
2021/06/03 11:08:41;;;;;;;15.93;7.20;;;;;;;;;;5060234;28;20479;-70
2021/06/03 11:11:10;;;;;;;10.70;6.72;;;;;;;;;;5069879;28;20016;-68
2021/06/03 11:13:36;;;;;;;13.52;7.55;;;;;;;;;;5069473;28;20024;-69
2021/06/03 11:16:04;;;;;;;17.98;7.80;;;;;;;;;;5068042;28;20033;-68
2021/06/03 11:18:45;;;;;;;13.48;8.15;;;;;;;;;;5055794;28;20028;-68
2021/06/03 11:21:28;;;;;;;14.80;6.32;;;;;;;;;;5071765;28;20021;-68
2021/06/03 11:23:54;;;;;;;10.32;6.35;;;;;;;;;;5073096;28;20028;-68
2021/06/03 11:26:40;;;;;;;10.55;6.32;;;;;;;;;;5073083;28;20024;-69
2021/06/03 11:29:16;;;;;;;8.65;4.25;;;;;;;;;;5072841;28;20013;-68
2021/06/03 11:31:47;;;;;;;5.75;3.90;;;;;;;;;;5065708;28;20029;-68
2021/06/03 11:34:14;;;;;;;7.40;3.42;;;;;;;;;;5063563;28;20028;-68
2021/06/03 11:36:41;;;;;;;6.28;3.30;;;;;;;;;;5053943;28;20098;-72
2021/06/03 11:39:26;;;;;;;8.20;3.30;;;;;;;;;;5072793;28;20020;-70
2021/06/03 11:41:52;;;;;;;7.60;3.47;;;;;;;;;;5071607;28;20560;-68
2021/06/03 11:44:17;;;;;;;5.63;3.70;;;;;;;;;;5072522;28;20056;-69
2021/06/03 11:46:51;;;;;;;7.30;3.37;;;;;;;;;;5071523;28;20016;-69
2021/06/03 11:49:35;;;;;;;8.80;3.40;;;;;;;;;;5072904;28;20261;-69
2021/06/03 11:52:09;;;;;;;4.82;3.33;;;;;;;;;;5069282;28;20112;-71
2021/06/03 11:54:52;;;;;;;5.72;3.42;;;;;;;;;;5072538;28;20028;-69
2021/06/03 11:57:18;;;;;;;7.88;3.30;;;;;;;;;;5072125;28;20386;-69
2021/06/03 11:59:53;;;;;;;5.00;3.47;;;;;;;;;;5072504;28;20019;-68
2021/06/03 12:02:29;;;;;;;7.10;3.10;;;;;;;;;;5072314;28;20024;-69
2021/06/03 12:05:12;;;;;;;6.65;3.35;;;;;;;;;;5071503;28;20470;-69
2021/06/03 12:08:04;;;;;;;11.90;3.17;;;;;;;;;;5062461;28;20474;-70
2021/06/03 12:10:41;;;;;;;7.28;2.78;;;;;;;;;;5054398;28;20037;-69
2021/06/03 12:13:16;;;;;;;6.03;3.20;;;;;;;;;;5072302;28;20028;-69
2021/06/03 12:15:42;;;;;;;4.03;3.08;;;;;;;;;;5071000;28;20029;-70
2021/06/03 12:18:07;;;;;;;4.88;3.05;;;;;;;;;;5072011;28;20165;-70
2021/06/03 12:20:32;;;;;;;4.40;3.10;;;;;;;;;;5071378;28;20024;-70
2021/06/03 12:23:05;;;;;;;5.63;3.53;;;;;;;;;;5064243;28;20796;-72
2021/06/03 12:25:33;;;;;;;5.43;3.35;;;;;;;;;;5060579;28;20020;-70
2021/06/03 12:27:58;;;;;;;5.38;3.28;;;;;;;;;;5071784;28;20139;-69
2021/06/03 12:30:28;;;;;;;6.90;3.47;;;;;;;;;;5071149;28;20051;-70
2021/06/03 12:33:00;;;;;;;7.97;3.10;;;;;;;;;;5051284;28;20110;-69
2021/06/03 12:35:51;;;;;;;8.23;4.22;;;;;;;;;;5059467;28;20044;-69
2021/06/03 12:38:33;;;;;;;7.03;3.78;;;;;;;;;;5018016;28;20170;-71
2021/06/03 12:41:01;;;;;;;9.10;3.53;;;;;;;;;;5059821;28;20044;-71
2021/06/03 12:43:33;;;;;;;7.05;3.97;;;;;;;;;;5071632;28;20036;-71
2021/06/03 12:45:58;;;;;;;7.18;3.60;;;;;;;;;;5071313;28;20013;-71
2021/06/03 12:48:25;;;;;;;4.93;3.33;;;;;;;;;;5069351;28;20017;-71
2021/06/03 12:50:50;;;;;;;8.35;4.00;;;;;;;;;;5071016;28;20256;-71
2021/06/03 12:53:17;;;;;;;8.73;4.43;;;;;;;;;;5071319;28;20154;-71
2021/06/03 12:55:43;;;;;;;5.15;2.85;;;;;;;;;;5070662;28;20028;-70
2021/06/03 12:58:09;;;;;;;7.45;3.90;;;;;;;;;;5070809;28;20078;-71
2021/06/03 13:00:35;;;;;;;7.00;3.13;;;;;;;;;;5071378;28;20056;-69
2021/06/03 13:03:12;;;;;;;8.38;4.07;;;;;;;;;;5070202;28;20025;-71
2021/06/03 13:05:38;;;;;;;5.40;3.70;;;;;;;;;;5059829;28;20422;-71
2021/06/03 13:08:03;;;;;;;4.25;2.40;;;;;;;;;;5070449;28;20034;-71
2021/06/03 13:10:28;;;;;;;6.45;2.83;;;;;;;;;;5069255;28;20023;-71
2021/06/03 13:13:00;;;;;;;5.45;2.28;;;;;;;;;;5045987;28;20421;-69
2021/06/03 13:15:25;;;;;;;7.53;3.70;;;;;;;;;;5070467;28;20099;-71
2021/06/03 13:17:55;;;;;;;3.25;2.40;;;;;;;;;;5070163;28;20096;-70
2021/06/03 13:20:22;;;;;;;4.97;3.05;;;;;;;;;;5070790;28;20375;-71
2021/06/03 13:22:49;;;;;;;6.35;2.97;;;;;;;;;;5063697;28;20033;-71
2021/06/03 13:25:14;;;;;;;7.43;2.78;;;;;;;;;;5069162;28;20478;-71
2021/06/03 13:27:44;;;;;;;4.53;2.92;;;;;;;;;;5064286;28;20071;-71
2021/06/03 13:30:12;;;;;;;5.35;2.72;;;;;;;;;;5052623;28;20028;-69
2021/06/03 13:32:37;;;;;;;5.95;2.60;;;;;;;;;;5070490;28;20389;-68
2021/06/03 13:35:07;;;;;;;9.43;3.53;;;;;;;;;;5070603;28;20032;-71
2021/06/03 13:37:34;;;;;;;7.20;3.55;;;;;;;;;;5070546;28;20046;-69
2021/06/03 13:40:01;;;;;;;1.50;1.40;;;;;;;;;;5070526;28;20103;-68
2021/06/03 13:42:30;;;;;;;4.25;3.17;;;;;;;;;;5069807;28;20028;-68
2021/06/03 13:44:55;;;;;;;7.50;3.22;;;;;;;;;;5069259;28;20031;-68
2021/06/03 13:47:53;;;;;;;4.18;2.97;;;;;;;;;;5069984;28;20017;-70
2021/06/03 13:50:35;;;;;;;4.47;2.80;;;;;;;;;;5015884;28;20570;-69
2021/06/03 13:53:26;;;;;;;4.25;2.72;;;;;;;;;;5050364;28;20025;-70
2021/06/03 13:56:01;;;;;;;7.32;3.15;;;;;;;;;;5063578;28;20038;-69
2021/06/03 13:58:43;;;;;;;6.22;2.85;;;;;;;;;;5070050;28;20029;-69
2021/06/03 14:01:13;;;;;;;5.38;2.70;;;;;;;;;;5070476;28;20021;-69
2021/06/03 14:03:39;;;;;;;4.20;3.15;;;;;;;;;;5070122;28;20074;-70
2021/06/03 14:06:05;;;;;;;4.53;3.13;;;;;;;;;;5069685;28;20017;-70
2021/06/03 14:08:34;;;;;;;4.05;2.83;;;;;;;;;;5070102;28;20020;-69
2021/06/03 14:11:29;;;;;;;5.80;3.15;;;;;;;;;;5070492;28;20020;-70
2021/06/03 14:14:03;;;;;;;5.70;3.00;;;;;;;;;;5068775;28;20733;-69
2021/06/03 14:16:41;;;;;;;7.63;3.10;;;;;;;;;;5070071;28;20024;-67
2021/06/03 14:19:08;;;;;;;5.35;2.95;;;;;;;;;;5070701;28;20020;-67
2021/06/03 14:21:34;;;;;;;5.07;3.25;;;;;;;;;;5070521;28;20024;-69
2021/06/03 14:23:59;;;;;;;6.32;3.30;;;;;;;;;;5070163;28;20017;-69
2021/06/03 14:26:24;;;;;;;5.00;3.40;;;;;;;;;;5069858;28;20020;-69
2021/06/03 14:28:57;;;;;;;2.73;1.80;;;;;;;;;;5070136;28;20066;-69
2021/06/03 14:31:22;;;;;;;4.85;3.20;;;;;;;;;;5068800;28;20266;-69
2021/06/03 14:33:48;;;;;;;3.53;2.53;;;;;;;;;;5069766;28;20016;-68
2021/06/03 14:36:13;;;;;;;5.85;3.28;;;;;;;;;;5070217;28;20756;-69
2021/06/03 14:38:46;;;;;;;6.87;3.43;;;;;;;;;;5068806;28;20364;-69
2021/06/03 14:41:11;;;;;;;6.07;2.15;;;;;;;;;;5068435;28;20254;-69
2021/06/03 14:43:41;;;;;;;4.45;2.20;;;;;;;;;;5060104;28;20039;-69
2021/06/03 14:46:12;;;;;;;3.72;2.72;;;;;;;;;;5063957;28;20501;-69
2021/06/03 14:48:38;;;;;;;6.60;2.80;;;;;;;;;;5067427;28;20029;-69